Ayr Dpi Research Station, Queensland

7:19 AM AEST on January 30, 2015 (GMT +1000)
Home Hill | Change Station
CLOSE
Current Station
Personal Weather Station
Location: Home Hill, QUEENSLAND
Elevation: 56 ft
Nearby Weather Stations

Elev 56 ft 19.66 °S, 147.42 °E | Updated 45 seconds ago

Partly Cloudy
Partly Cloudy
95.4 °F
Feels Like 115 °F
N
3.8
Wind Variable Wind from North
Gusts 7.6 mph

Today
High -- | Low -- °F
--% Chance of Precip.
Yesterday
High -- | Low -- °F
Precip. -- in
5:53 AM 6:53 PM
Waxing Gibbous, 77% visible
Pressure 29.71 in
Visibility 6.2 miles
Clouds Few 1300 ft
Heat Index 115 °F
Dew Point 80 °F
Humidity 61%
Rainfall 0.00 in
Snow Depth Not available.
UV 1 out of 12
Pollen Not available.
Air Quality Not available.
Flu Activity Not available.
METAR YBTL 292100Z 14005KT 9999 FEW013 27/23 Q1006 RMK DISTANT SHOWERS

More Conditions Fewer Conditions

Pressure 29.71 in
Visibility 6.2 miles
Clouds Few 1300 ft
Heat Index 115 °F
Dew Point 80 °F
Humidity 61%
Rainfall 0.00 in
Snow Depth Not available.
UV 1 out of 12
Pollen Not available.
Air Quality Not available.
Flu Activity Not available.
METAR YBTL 292100Z 14005KT 9999 FEW013 27/23 Q1006 RMK DISTANT SHOWERS

More Conditions Fewer Conditions

10-Day Weather Forecast

Almanac

Astronomy

Jan. 30, 2015 Rise Set
Actual Time
Civil Twilight
Nautical Twilight
Astronomical Twilight
Moon
Length of Visible Light
Length of Day
Tomorrow will be .
, % of the Moon is Illuminated

Today's Extremes

Country Highs Country Lows

Community

WunderPhotos

Upload Photos

1,791,608 photos uploaded!

WunderBlogs® & News

Nearby

Air Quality

  Air Quality AQ Index Pollutant
Not available.

Snow Depth

Station Depth Elevation

Earthquake Activity

City Distance Mag. Time & Date
Minimum magnitude displayed is 2.5.

Coastal Water Temperatures

Place Temperature

Nearby Weather Stations